Inuvik Mike Zubko Airport
CYEV : now visible

Airfield :











YOU CAN JOIN US ON...

 
LOGIN :

Register | Disclaimer

   EN    FR    IT 

 









Legend :    VFR   Marginal VFR   IFR   Intensive IFR   Very Intensive IFR
Visi :
Ceiling :
>= 8 km
>= 3000ft
5 to 8 km
1000 to 3000 ft
1500m to 5 km
500 to 1000 ft
800 to 1500m
200 to 500 ft
< 800m
< 200 ft
Symbols :   Thunderstorms  Fog  Heavy snow  Heavy precipitations  Wind > 20 kt






- Airport Elevation : 224 ft
- IATA code : YEV


CYEV - Inuvik Mike Zubko

CURRENT METAR :
  • 162300Z 00000KT 15SM SCT140 SCT270 20/M01 A3005 RMK AC3CI1 SLP181 DENSITY ALT 800FT

EXPIRED METARs :
  • 162200Z 17005KT 15SM FEW140 SCT260 19/M01 A3006 RMK AC1CI2 SLP185 DENSITY ALT 700FT
  • 162100Z VRB05KT 15SM FEW140 SCT260 19/M02 A3008 RMK AC2CI2 SLP190 DENSITY ALT 600FT
  • 162000Z 10008KT 050V160 15SM FEW140 SCT260 18/M01 A3009 RMK AC1CI2 SLP195 DENSITY ALT 500FT
  • 161900Z 07007KT 010V180 15SM FEW130 SCT260 18/M01 A3011 RMK AC1CI3 AC TR SLP200

TAF TAF CYEV
Valid from the 16 at 19:00 until the 17 at 07:00 UTC


161840Z 1619/1707 VRB03KT P6SM FEW240
FM170100 04008KT P6SM BKN080
TEMPO 1702/1707 P6SM -SHRA RMK NXT FCST BY 170100Z
CZEG FIR / North America



MET'MAP, your aeronautical weather chart ! - Copyright ORBIFLY December 2007 - Disclaimer

ORBIFLY MET'MAP TEAM :

Programming & Development : Alexandra Zaïnal
Original concept : Baudouin d'Aumeries
Technical & hardware support : Manuel Goepfert
Assistance : Marc-Olivier Méhu




SOURCES & CREDITS :

   NOAA       Earth
Advisory